sensor_id;sensor_type;location;lat;lon;timestamp;pressure;altitude;pressure_sealevel;temperature;humidity
60433;BME280;46286;48.098;11.590;2022-08-06T00:02:09;95922.56;;;17.54;100.00
60433;BME280;46286;48.098;11.590;2022-08-06T00:04:35;95921.22;;;17.42;100.00
60433;BME280;46286;48.098;11.590;2022-08-06T00:07:00;95931.88;;;17.42;100.00
60433;BME280;46286;48.098;11.590;2022-08-06T00:09:26;95935.28;;;17.34;100.00
60433;BME280;46286;48.098;11.590;2022-08-06T00:12:03;95938.66;;;17.26;100.00
60433;BME280;46286;48.098;11.590;2022-08-06T00:14:30;95944.56;;;17.23;100.00
60433;BME280;46286;48.098;11.590;2022-08-06T00:16:55;95950.13;;;17.12;100.00
60433;BME280;46286;48.098;11.590;2022-08-06T00:19:21;95941.41;;;17.21;100.00
60433;BME280;46286;48.098;11.590;2022-08-06T00:21:47;95939.00;;;17.10;100.00
60433;BME280;46286;48.098;11.590;2022-08-06T00:24:13;95944.91;;;17.07;100.00
60433;BME280;46286;48.098;11.590;2022-08-06T00:26:40;95951.91;;;17.03;100.00
60433;BME280;46286;48.098;11.590;2022-08-06T00:29:05;95954.25;;;17.05;100.00
60433;BME280;46286;48.098;11.590;2022-08-06T00:31:31;95948.16;;;17.04;100.00
60433;BME280;46286;48.098;11.590;2022-08-06T00:33:57;95965.50;;;17.02;100.00
60433;BME280;46286;48.098;11.590;2022-08-06T00:36:26;95950.56;;;16.92;100.00
60433;BME280;46286;48.098;11.590;2022-08-06T00:38:52;95951.44;;;17.01;100.00
60433;BME280;46286;48.098;11.590;2022-08-06T00:41:18;95943.09;;;16.94;100.00
60433;BME280;46286;48.098;11.590;2022-08-06T00:43:44;95949.94;;;16.95;100.00
60433;BME280;46286;48.098;11.590;2022-08-06T00:46:10;95952.31;;;16.96;100.00
60433;BME280;46286;48.098;11.590;2022-08-06T00:48:35;95940.19;;;17.04;100.00
60433;BME280;46286;48.098;11.590;2022-08-06T00:51:01;95942.94;;;16.99;100.00
60433;BME280;46286;48.098;11.590;2022-08-06T00:53:27;95935.59;;;16.96;100.00
60433;BME280;46286;48.098;11.590;2022-08-06T00:55:53;95937.34;;;17.01;100.00
60433;BME280;46286;48.098;11.590;2022-08-06T00:58:18;95928.31;;;16.88;100.00
60433;BME280;46286;48.098;11.590;2022-08-06T01:00:44;95929.88;;;16.89;100.00
60433;BME280;46286;48.098;11.590;2022-08-06T01:03:09;95939.31;;;16.95;100.00
60433;BME280;46286;48.098;11.590;2022-08-06T01:05:36;95941.50;;;16.93;100.00
60433;BME280;46286;48.098;11.590;2022-08-06T01:08:02;95949.94;;;16.95;100.00
60433;BME280;46286;48.098;11.590;2022-08-06T01:10:27;95943.97;;;16.89;100.00
60433;BME280;46286;48.098;11.590;2022-08-06T01:12:53;95950.16;;;16.85;100.00
60433;BME280;46286;48.098;11.590;2022-08-06T01:15:18;95946.22;;;16.96;100.00
60433;BME280;46286;48.098;11.590;2022-08-06T01:17:55;95942.69;;;16.87;100.00
60433;BME280;46286;48.098;11.590;2022-08-06T01:23:43;95938.66;;;16.75;100.00
60433;BME280;46286;48.098;11.590;2022-08-06T01:29:02;95920.06;;;16.75;100.00
60433;BME280;46286;48.098;11.590;2022-08-06T01:31:38;95922.22;;;16.73;100.00
60433;BME280;46286;48.098;11.590;2022-08-06T01:34:16;95924.75;;;16.78;100.00
60433;BME280;46286;48.098;11.590;2022-08-06T01:36:47;95918.47;;;16.74;100.00
60433;BME280;46286;48.098;11.590;2022-08-06T01:39:16;95917.88;;;16.77;100.00
60433;BME280;46286;48.098;11.590;2022-08-06T01:41:48;95917.88;;;16.63;100.00
60433;BME280;46286;48.098;11.590;2022-08-06T01:44:20;95912.19;;;16.70;100.00
60433;BME280;46286;48.098;11.590;2022-08-06T01:46:54;95912.19;;;16.70;100.00
60433;BME280;46286;48.098;11.590;2022-08-06T01:49:24;95915.06;;;16.60;100.00
60433;BME280;46286;48.098;11.590;2022-08-06T01:51:52;95912.78;;;16.67;100.00
60433;BME280;46286;48.098;11.590;2022-08-06T01:54:19;95910.22;;;16.62;100.00
60433;BME280;46286;48.098;11.590;2022-08-06T01:56:48;95919.28;;;16.61;100.00
60433;BME280;46286;48.098;11.590;2022-08-06T01:59:17;95921.44;;;16.59;100.00
60433;BME280;46286;48.098;11.590;2022-08-06T02:01:47;95927.97;;;16.53;100.00
60433;BME280;46286;48.098;11.590;2022-08-06T02:04:15;95937.38;;;16.59;100.00
60433;BME280;46286;48.098;11.590;2022-08-06T02:06:45;95930.53;;;16.58;100.00
60433;BME280;46286;48.098;11.590;2022-08-06T02:09:17;95933.06;;;16.63;100.00
60433;BME280;46286;48.098;11.590;2022-08-06T02:11:47;95942.09;;;16.62;100.00
60433;BME280;46286;48.098;11.590;2022-08-06T02:14:14;95942.53;;;16.55;100.00
60433;BME280;46286;48.098;11.590;2022-08-06T02:16:42;95941.72;;;16.55;100.00
60433;BME280;46286;48.098;11.590;2022-08-06T02:19:11;95936.31;;;16.60;100.00
60433;BME280;46286;48.098;11.590;2022-08-06T02:21:40;95946.84;;;16.65;100.00
60433;BME280;46286;48.098;11.590;2022-08-06T02:24:08;95951.78;;;16.58;100.00
60433;BME280;46286;48.098;11.590;2022-08-06T02:26:37;95945.88;;;16.61;100.00
60433;BME280;46286;48.098;11.590;2022-08-06T02:29:06;95938.97;;;16.60;100.00
60433;BME280;46286;48.098;11.590;2022-08-06T02:31:32;95933.66;;;16.60;100.00
60433;BME280;46286;48.098;11.590;2022-08-06T02:33:58;95933.66;;;16.60;100.00
60433;BME280;46286;48.098;11.590;2022-08-06T02:36:39;95938.97;;;16.60;100.00
60433;BME280;46286;48.098;11.590;2022-08-06T02:39:19;95922.66;;;16.53;100.00
60433;BME280;46286;48.098;11.590;2022-08-06T02:44:34;95930.31;;;16.54;100.00
60433;BME280;46286;48.098;11.590;2022-08-06T02:47:02;95926.75;;;16.59;100.00
60433;BME280;46286;48.098;11.590;2022-08-06T02:49:33;95928.03;;;16.61;100.00
60433;BME280;46286;48.098;11.590;2022-08-06T02:52:05;95918.50;;;16.60;100.00
60433;BME280;46286;48.098;11.590;2022-08-06T02:54:49;95928.34;;;16.60;100.00
60433;BME280;46286;48.098;11.590;2022-08-06T02:57:24;95931.28;;;16.58;100.00
60433;BME280;46286;48.098;11.590;2022-08-06T02:59:53;95938.38;;;16.63;100.00
60433;BME280;46286;48.098;11.590;2022-08-06T03:02:22;95930.22;;;16.59;100.00
60433;BME280;46286;48.098;11.590;2022-08-06T03:04:48;95937.16;;;16.69;100.00
60433;BME280;46286;48.098;11.590;2022-08-06T03:07:16;95923.41;;;16.67;100.00
60433;BME280;46286;48.098;11.590;2022-08-06T03:09:46;95926.66;;;16.64;100.00
60433;BME280;46286;48.098;11.590;2022-08-06T03:12:15;95926.16;;;16.62;100.00
60433;BME280;46286;48.098;11.590;2022-08-06T03:14:42;95928.72;;;16.67;100.00
60433;BME280;46286;48.098;11.590;2022-08-06T03:17:11;95936.19;;;16.79;100.00
60433;BME280;46286;48.098;11.590;2022-08-06T03:19:39;95929.00;;;16.79;100.00
60433;BME280;46286;48.098;11.590;2022-08-06T03:22:05;95930.69;;;16.75;100.00
60433;BME280;46286;48.098;11.590;2022-08-06T03:24:34;95927.75;;;16.63;100.00
60433;BME280;46286;48.098;11.590;2022-08-06T03:27:01;95937.88;;;16.61;100.00
60433;BME280;46286;48.098;11.590;2022-08-06T03:29:27;95926.91;;;16.76;100.00
60433;BME280;46286;48.098;11.590;2022-08-06T03:31:53;95938.16;;;16.73;100.00
60433;BME280;46286;48.098;11.590;2022-08-06T03:34:20;95942.50;;;16.69;100.00
60433;BME280;46286;48.098;11.590;2022-08-06T03:36:46;95936.22;;;16.65;100.00
60433;BME280;46286;48.098;11.590;2022-08-06T03:39:14;95948.19;;;16.76;100.00
60433;BME280;46286;48.098;11.590;2022-08-06T03:41:40;95939.03;;;16.83;100.00
60433;BME280;46286;48.098;11.590;2022-08-06T03:44:06;95947.59;;;16.79;100.00
60433;BME280;46286;48.098;11.590;2022-08-06T03:49:00;95948.56;;;16.84;100.00
60433;BME280;46286;48.098;11.590;2022-08-06T03:51:27;95944.44;;;16.77;100.00
60433;BME280;46286;48.098;11.590;2022-08-06T03:53:56;95954.09;;;16.87;100.00
60433;BME280;46286;48.098;11.590;2022-08-06T03:56:26;95944.25;;;16.88;100.00
60433;BME280;46286;48.098;11.590;2022-08-06T03:58:54;95938.34;;;16.91;100.00
60433;BME280;46286;48.098;11.590;2022-08-06T04:01:23;95944.81;;;16.85;100.00
60433;BME280;46286;48.098;11.590;2022-08-06T04:03:51;95939.91;;;16.92;100.00
60433;BME280;46286;48.098;11.590;2022-08-06T04:06:19;95943.66;;;16.91;100.00
60433;BME280;46286;48.098;11.590;2022-08-06T04:08:46;95954.66;;;16.98;100.00
60433;BME280;46286;48.098;11.590;2022-08-06T04:11:12;95955.88;;;16.92;100.00
60433;BME280;46286;48.098;11.590;2022-08-06T04:13:39;95954.28;;;16.91;100.00
60433;BME280;46286;48.098;11.590;2022-08-06T04:16:04;95960.72;;;16.90;100.00
60433;BME280;46286;48.098;11.590;2022-08-06T04:18:33;95959.59;;;16.91;100.00
60433;BME280;46286;48.098;11.590;2022-08-06T04:21:03;95975.47;;;16.96;100.00
60433;BME280;46286;48.098;11.590;2022-08-06T04:23:30;95982.03;;;16.85;100.00
60433;BME280;46286;48.098;11.590;2022-08-06T04:25:56;95977.72;;;16.89;100.00
60433;BME280;46286;48.098;11.590;2022-08-06T04:28:24;95984.63;;;16.90;100.00
60433;BME280;46286;48.098;11.590;2022-08-06T04:30:52;95988.75;;;16.96;100.00
60433;BME280;46286;48.098;11.590;2022-08-06T04:33:20;95987.97;;;16.95;100.00
60433;BME280;46286;48.098;11.590;2022-08-06T04:35:46;95988.63;;;16.87;100.00
60433;BME280;46286;48.098;11.590;2022-08-06T04:38:15;95993.69;;;16.89;100.00
60433;BME280;46286;48.098;11.590;2022-08-06T04:40:42;95996.81;;;16.91;100.00
60433;BME280;46286;48.098;11.590;2022-08-06T04:43:11;95995.84;;;16.87;100.00
60433;BME280;46286;48.098;11.590;2022-08-06T04:45:40;95998.00;;;16.85;100.00
60433;BME280;46286;48.098;11.590;2022-08-06T04:48:08;95994.34;;;16.80;100.00
60433;BME280;46286;48.098;11.590;2022-08-06T04:50:35;95994.84;;;16.83;100.00
60433;BME280;46286;48.098;11.590;2022-08-06T04:53:06;95998.59;;;16.82;100.00
60433;BME280;46286;48.098;11.590;2022-08-06T04:55:32;96005.47;;;16.83;100.00
60433;BME280;46286;48.098;11.590;2022-08-06T04:57:58;96002.44;;;16.75;100.00
60433;BME280;46286;48.098;11.590;2022-08-06T05:00:23;96003.59;;;16.69;100.00
60433;BME280;46286;48.098;11.590;2022-08-06T05:02:50;96008.22;;;16.77;100.00
60433;BME280;46286;48.098;11.590;2022-08-06T05:05:18;96005.69;;;16.72;100.00
60433;BME280;46286;48.098;11.590;2022-08-06T05:07:45;96001.34;;;16.76;100.00
60433;BME280;46286;48.098;11.590;2022-08-06T05:10:11;96005.09;;;16.75;100.00
60433;BME280;46286;48.098;11.590;2022-08-06T05:12:39;96016.31;;;16.72;100.00
60433;BME280;46286;48.098;11.590;2022-08-06T05:18:03;96024.16;;;16.63;100.00
60433;BME280;46286;48.098;11.590;2022-08-06T05:20:33;96023.00;;;16.56;100.00
60433;BME280;46286;48.098;11.590;2022-08-06T05:23:08;96038.94;;;16.56;100.00
60433;BME280;46286;48.098;11.590;2022-08-06T05:25:39;96035.22;;;16.57;100.00
60433;BME280;46286;48.098;11.590;2022-08-06T05:28:05;96046.63;;;16.43;100.00
60433;BME280;46286;48.098;11.590;2022-08-06T05:30:30;96048.19;;;16.44;100.00
60433;BME280;46286;48.098;11.590;2022-08-06T05:32:56;96044.84;;;16.53;100.00
60433;BME280;46286;48.098;11.590;2022-08-06T05:35:24;96047.19;;;16.40;100.00
60433;BME280;46286;48.098;11.590;2022-08-06T05:37:50;96054.66;;;16.38;100.00
60433;BME280;46286;48.098;11.590;2022-08-06T05:40:15;96054.44;;;16.21;100.00
60433;BME280;46286;48.098;11.590;2022-08-06T05:42:41;96061.47;;;16.11;100.00
60433;BME280;46286;48.098;11.590;2022-08-06T05:45:08;96063.47;;;16.20;100.00
60433;BME280;46286;48.098;11.590;2022-08-06T05:47:36;96055.03;;;16.18;100.00
60433;BME280;46286;48.098;11.590;2022-08-06T05:50:08;96068.50;;;16.21;100.00
60433;BME280;46286;48.098;11.590;2022-08-06T05:52:52;96063.81;;;15.99;100.00
60433;BME280;46286;48.098;11.590;2022-08-06T05:55:27;96072.69;;;16.08;100.00
60433;BME280;46286;48.098;11.590;2022-08-06T05:58:00;96073.69;;;16.13;100.00
60433;BME280;46286;48.098;11.590;2022-08-06T06:00:31;96079.69;;;15.85;100.00
60433;BME280;46286;48.098;11.590;2022-08-06T06:02:59;96078.91;;;15.85;100.00
60433;BME280;46286;48.098;11.590;2022-08-06T06:05:26;96087.56;;;15.71;100.00
60433;BME280;46286;48.098;11.590;2022-08-06T06:07:52;96091.38;;;15.65;100.00
60433;BME280;46286;48.098;11.590;2022-08-06T06:10:21;96090.22;;;15.71;100.00
60433;BME280;46286;48.098;11.590;2022-08-06T06:12:48;96101.34;;;15.54;100.00
60433;BME280;46286;48.098;11.590;2022-08-06T06:15:16;96104.69;;;15.60;100.00
60433;BME280;46286;48.098;11.590;2022-08-06T06:25:24;96108.34;;;15.45;100.00
60433;BME280;46286;48.098;11.590;2022-08-06T06:27:58;96107.69;;;15.34;100.00
60433;BME280;46286;48.098;11.590;2022-08-06T06:30:46;96114.13;;;15.28;100.00
60433;BME280;46286;48.098;11.590;2022-08-06T06:33:47;96124.97;;;15.32;100.00
60433;BME280;46286;48.098;11.590;2022-08-06T06:36:33;96117.97;;;15.17;100.00
60433;BME280;46286;48.098;11.590;2022-08-06T06:41:58;96113.59;;;15.07;100.00
60433;BME280;46286;48.098;11.590;2022-08-06T06:47:16;96124.97;;;15.07;100.00
60433;BME280;46286;48.098;11.590;2022-08-06T06:49:56;96126.56;;;15.09;100.00
60433;BME280;46286;48.098;11.590;2022-08-06T06:52:36;96130.28;;;15.07;100.00
60433;BME280;46286;48.098;11.590;2022-08-06T06:57:45;96138.84;;;14.99;100.00
60433;BME280;46286;48.098;11.590;2022-08-06T07:00:13;96128.56;;;14.93;100.00
60433;BME280;46286;48.098;11.590;2022-08-06T07:02:40;96138.84;;;14.99;100.00
60433;BME280;46286;48.098;11.590;2022-08-06T07:05:08;96139.16;;;14.93;100.00
60433;BME280;46286;48.098;11.590;2022-08-06T07:07:38;96136.47;;;14.73;100.00
60433;BME280;46286;48.098;11.590;2022-08-06T07:10:05;96145.56;;;14.62;100.00
60433;BME280;46286;48.098;11.590;2022-08-06T07:12:34;96148.19;;;14.67;100.00
60433;BME280;46286;48.098;11.590;2022-08-06T07:15:04;96140.88;;;14.83;100.00
60433;BME280;46286;48.098;11.590;2022-08-06T07:17:33;96139.63;;;14.76;100.00
60433;BME280;46286;48.098;11.590;2022-08-06T07:20:05;96153.75;;;14.61;100.00
60433;BME280;46286;48.098;11.590;2022-08-06T07:22:34;96155.09;;;14.58;100.00
60433;BME280;46286;48.098;11.590;2022-08-06T07:25:02;96154.31;;;14.58;100.00
60433;BME280;46286;48.098;11.590;2022-08-06T07:27:32;96163.13;;;14.53;100.00
60433;BME280;46286;48.098;11.590;2022-08-06T07:29:58;96165.16;;;14.61;100.00
60433;BME280;46286;48.098;11.590;2022-08-06T07:32:25;96165.25;;;14.51;100.00
60433;BME280;46286;48.098;11.590;2022-08-06T07:34:52;96162.56;;;14.56;100.00
60433;BME280;46286;48.098;11.590;2022-08-06T07:37:18;96162.56;;;14.56;100.00
60433;BME280;46286;48.098;11.590;2022-08-06T07:39:46;96171.53;;;14.65;100.00
60433;BME280;46286;48.098;11.590;2022-08-06T07:42:16;96178.63;;;14.70;100.00
60433;BME280;46286;48.098;11.590;2022-08-06T07:44:46;96170.69;;;14.70;100.00
60433;BME280;46286;48.098;11.590;2022-08-06T07:47:16;96175.22;;;14.64;100.00
60433;BME280;46286;48.098;11.590;2022-08-06T07:49:47;96179.97;;;14.67;100.00
60433;BME280;46286;48.098;11.590;2022-08-06T07:52:15;96180.44;;;14.75;100.00
60433;BME280;46286;48.098;11.590;2022-08-06T07:54:42;96185.34;;;14.57;100.00
60433;BME280;46286;48.098;11.590;2022-08-06T07:57:09;96190.34;;;14.59;100.00
60433;BME280;46286;48.098;11.590;2022-08-06T07:59:36;96191.13;;;14.64;100.00
60433;BME280;46286;48.098;11.590;2022-08-06T08:02:03;96182.66;;;14.62;100.00
60433;BME280;46286;48.098;11.590;2022-08-06T08:04:30;96189.53;;;14.58;100.00
60433;BME280;46286;48.098;11.590;2022-08-06T08:07:14;96192.16;;;14.68;100.00
60433;BME280;46286;48.098;11.590;2022-08-06T08:09:42;96188.97;;;14.66;100.00
60433;BME280;46286;48.098;11.590;2022-08-06T08:12:11;96190.47;;;14.78;100.00
60433;BME280;46286;48.098;11.590;2022-08-06T08:14:37;96194.25;;;14.71;100.00
60433;BME280;46286;48.098;11.590;2022-08-06T08:17:04;96196.34;;;14.75;100.00
60433;BME280;46286;48.098;11.590;2022-08-06T08:19:32;96198.47;;;14.72;100.00
60433;BME280;46286;48.098;11.590;2022-08-06T08:22:01;96186.22;;;14.77;100.00
60433;BME280;46286;48.098;11.590;2022-08-06T08:24:29;96207.28;;;14.92;100.00
60433;BME280;46286;48.098;11.590;2022-08-06T08:26:56;96200.75;;;14.84;100.00
60433;BME280;46286;48.098;11.590;2022-08-06T08:29:22;96203.69;;;14.83;100.00
60433;BME280;46286;48.098;11.590;2022-08-06T08:31:48;96202.75;;;14.68;100.00
60433;BME280;46286;48.098;11.590;2022-08-06T08:34:13;96202.97;;;14.72;100.00
60433;BME280;46286;48.098;11.590;2022-08-06T08:36:39;96207.25;;;14.68;100.00
60433;BME280;46286;48.098;11.590;2022-08-06T08:39:06;96207.41;;;14.82;100.00
60433;BME280;46286;48.098;11.590;2022-08-06T08:41:44;96213.16;;;14.89;100.00
60433;BME280;46286;48.098;11.590;2022-08-06T08:44:11;96206.72;;;14.95;100.00
60433;BME280;46286;48.098;11.590;2022-08-06T08:46:40;96213.06;;;14.99;100.00
60433;BME280;46286;48.098;11.590;2022-08-06T08:49:07;96212.41;;;14.83;100.00
60433;BME280;46286;48.098;11.590;2022-08-06T08:51:39;96216.97;;;14.78;100.00
60433;BME280;46286;48.098;11.590;2022-08-06T08:54:07;96224.34;;;14.81;100.00
60433;BME280;46286;48.098;11.590;2022-08-06T08:56:33;96227.00;;;14.81;100.00
60433;BME280;46286;48.098;11.590;2022-08-06T08:59:01;96223.75;;;14.89;100.00
60433;BME280;46286;48.098;11.590;2022-08-06T09:01:27;96229.16;;;14.79;100.00
60433;BME280;46286;48.098;11.590;2022-08-06T09:03:53;96231.28;;;14.77;100.00
60433;BME280;46286;48.098;11.590;2022-08-06T09:06:21;96232.31;;;14.81;100.00
60433;BME280;46286;48.098;11.590;2022-08-06T09:08:47;96234.09;;;14.85;100.00
60433;BME280;46286;48.098;11.590;2022-08-06T09:11:13;96239.09;;;14.92;100.00
60433;BME280;46286;48.098;11.590;2022-08-06T09:13:39;96228.59;;;14.82;100.00
60433;BME280;46286;48.098;11.590;2022-08-06T09:16:05;96244.19;;;14.88;100.00
60433;BME280;46286;48.098;11.590;2022-08-06T09:18:31;96247.00;;;14.97;100.00
60433;BME280;46286;48.098;11.590;2022-08-06T09:20:58;96246.00;;;14.93;100.00
60433;BME280;46286;48.098;11.590;2022-08-06T09:23:24;96247.56;;;14.94;100.00
60433;BME280;46286;48.098;11.590;2022-08-06T09:25:52;96248.09;;;14.91;100.00
60433;BME280;46286;48.098;11.590;2022-08-06T09:31:11;96245.28;;;14.82;100.00
60433;BME280;46286;48.098;11.590;2022-08-06T09:33:39;96240.31;;;14.76;100.00
60433;BME280;46286;48.098;11.590;2022-08-06T09:36:07;96248.66;;;14.88;100.00
60433;BME280;46286;48.098;11.590;2022-08-06T09:38:56;96249.59;;;15.02;100.00
60433;BME280;46286;48.098;11.590;2022-08-06T09:41:24;96242.53;;;14.93;100.00
60433;BME280;46286;48.098;11.590;2022-08-06T09:43:52;96248.56;;;14.98;100.00
60433;BME280;46286;48.098;11.590;2022-08-06T09:46:35;96249.59;;;15.02;100.00
60433;BME280;46286;48.098;11.590;2022-08-06T09:49:02;96247.22;;;15.01;100.00
60433;BME280;46286;48.098;11.590;2022-08-06T09:51:28;96249.22;;;14.85;100.00
60433;BME280;46286;48.098;11.590;2022-08-06T09:53:55;96245.53;;;14.86;100.00
60433;BME280;46286;48.098;11.590;2022-08-06T09:56:27;96253.34;;;15.01;100.00
60433;BME280;46286;48.098;11.590;2022-08-06T09:59:01;96250.72;;;14.96;100.00
60433;BME280;46286;48.098;11.590;2022-08-06T10:01:45;96257.34;;;14.99;100.00
60433;BME280;46286;48.098;11.590;2022-08-06T10:04:24;96252.69;;;15.15;100.00
60433;BME280;46286;48.098;11.590;2022-08-06T10:06:54;96256.06;;;15.20;100.00
60433;BME280;46286;48.098;11.590;2022-08-06T10:09:20;96248.97;;;15.16;100.00
60433;BME280;46286;48.098;11.590;2022-08-06T10:11:45;96255.59;;;15.13;100.00
60433;BME280;46286;48.098;11.590;2022-08-06T10:17:14;96257.84;;;15.30;100.00
60433;BME280;46286;48.098;11.590;2022-08-06T10:19:42;96264.19;;;15.29;100.00
60433;BME280;46286;48.098;11.590;2022-08-06T10:24:37;96256.22;;;15.34;100.00
60433;BME280;46286;48.098;11.590;2022-08-06T10:27:08;96262.50;;;15.38;100.00
60433;BME280;46286;48.098;11.590;2022-08-06T10:29:35;96264.63;;;15.41;100.00
60433;BME280;46286;48.098;11.590;2022-08-06T10:32:04;96265.50;;;15.32;100.00
60433;BME280;46286;48.098;11.590;2022-08-06T10:34:34;96270.06;;;15.26;100.00
60433;BME280;46286;48.098;11.590;2022-08-06T10:37:03;96255.41;;;15.34;100.00
60433;BME280;46286;48.098;11.590;2022-08-06T10:39:35;96265.13;;;15.44;100.00
60433;BME280;46286;48.098;11.590;2022-08-06T10:42:03;96282.63;;;15.45;100.00
60433;BME280;46286;48.098;11.590;2022-08-06T10:44:28;96268.19;;;15.56;100.00
60433;BME280;46286;48.098;11.590;2022-08-06T10:46:55;96264.88;;;15.64;100.00
60433;BME280;46286;48.098;11.590;2022-08-06T10:49:22;96267.03;;;15.62;100.00
60433;BME280;46286;48.098;11.590;2022-08-06T10:51:48;96260.88;;;15.67;100.00
60433;BME280;46286;48.098;11.590;2022-08-06T10:54:15;96269.97;;;15.61;100.00
60433;BME280;46286;48.098;11.590;2022-08-06T10:56:41;96256.44;;;15.62;100.00
60433;BME280;46286;48.098;11.590;2022-08-06T10:59:07;96263.78;;;15.70;100.00
60433;BME280;46286;48.098;11.590;2022-08-06T11:01:44;96258.38;;;15.81;100.00
60433;BME280;46286;48.098;11.590;2022-08-06T11:04:32;96266.25;;;15.86;100.00
60433;BME280;46286;48.098;11.590;2022-08-06T11:12:17;96257.03;;;16.21;100.00
60433;BME280;46286;48.098;11.590;2022-08-06T11:14:47;96257.38;;;16.15;100.00
60433;BME280;46286;48.098;11.590;2022-08-06T11:17:12;96250.66;;;16.03;100.00
60433;BME280;46286;48.098;11.590;2022-08-06T11:19:46;96255.25;;;16.17;100.00
60433;BME280;46286;48.098;11.590;2022-08-06T11:22:38;96259.94;;;16.25;100.00
60433;BME280;46286;48.098;11.590;2022-08-06T11:25:06;96249.28;;;16.06;100.00
60433;BME280;46286;48.098;11.590;2022-08-06T11:27:55;96251.59;;;16.13;100.00
60433;BME280;46286;48.098;11.590;2022-08-06T11:33:05;96244.75;;;16.44;100.00
60433;BME280;46286;48.098;11.590;2022-08-06T11:38:01;96240.84;;;16.94;100.00
60433;BME280;46286;48.098;11.590;2022-08-06T11:40:27;96231.41;;;17.16;100.00
60433;BME280;46286;48.098;11.590;2022-08-06T11:42:52;96230.03;;;17.32;100.00
60433;BME280;46286;48.098;11.590;2022-08-06T11:45:18;96234.16;;;17.38;100.00
60433;BME280;46286;48.098;11.590;2022-08-06T11:48:04;96235.56;;;17.49;100.00
60433;BME280;46286;48.098;11.590;2022-08-06T11:50:30;96231.81;;;17.51;100.00
60433;BME280;46286;48.098;11.590;2022-08-06T11:52:56;96238.03;;;17.32;100.00
60433;BME280;46286;48.098;11.590;2022-08-06T11:55:22;96228.44;;;17.03;100.00
60433;BME280;46286;48.098;11.590;2022-08-06T11:57:48;96229.34;;;17.12;100.00
60433;BME280;46286;48.098;11.590;2022-08-06T12:00:20;96229.22;;;17.04;100.00
60433;BME280;46286;48.098;11.590;2022-08-06T12:02:48;96229.03;;;17.00;100.00
60433;BME280;46286;48.098;11.590;2022-08-06T12:07:44;96232.06;;;16.74;100.00
60433;BME280;46286;48.098;11.590;2022-08-06T12:10:12;96230.66;;;16.63;100.00
60433;BME280;46286;48.098;11.590;2022-08-06T12:12:49;96232.66;;;16.71;100.00
60433;BME280;46286;48.098;11.590;2022-08-06T12:20:32;96231.66;;;16.67;100.00
60433;BME280;46286;48.098;11.590;2022-08-06T12:23:02;96232.06;;;16.74;100.00
60433;BME280;46286;48.098;11.590;2022-08-06T12:25:40;96232.41;;;16.87;100.00
60433;BME280;46286;48.098;11.590;2022-08-06T12:28:07;96227.03;;;16.92;100.00
60433;BME280;46286;48.098;11.590;2022-08-06T12:30:49;96224.28;;;16.97;100.00
60433;BME280;46286;48.098;11.590;2022-08-06T12:33:16;96226.28;;;16.86;100.00
60433;BME280;46286;48.098;11.590;2022-08-06T12:35:52;96229.91;;;16.76;100.00
60433;BME280;46286;48.098;11.590;2022-08-06T12:38:21;96221.72;;;16.92;100.00
60433;BME280;46286;48.098;11.590;2022-08-06T12:43:22;96224.09;;;17.07;100.00
60433;BME280;46286;48.098;11.590;2022-08-06T12:45:55;96219.38;;;17.04;100.00
60433;BME280;46286;48.098;11.590;2022-08-06T12:48:21;96215.44;;;17.02;100.00
60433;BME280;46286;48.098;11.590;2022-08-06T12:50:47;96216.63;;;17.09;100.00
60433;BME280;46286;48.098;11.590;2022-08-06T12:53:17;96221.53;;;17.02;100.00
60433;BME280;46286;48.098;11.590;2022-08-06T12:55:53;96220.53;;;16.98;100.00
60433;BME280;46286;48.098;11.590;2022-08-06T12:58:29;96229.22;;;17.04;100.00
60433;BME280;46286;48.098;11.590;2022-08-06T13:00:58;96215.06;;;17.08;100.00
60433;BME280;46286;48.098;11.590;2022-08-06T13:03:24;96222.34;;;17.17;100.00
60433;BME280;46286;48.098;11.590;2022-08-06T13:05:55;96218.81;;;17.35;100.00
60433;BME280;46286;48.098;11.590;2022-08-06T13:08:23;96217.22;;;17.48;100.00
60433;BME280;46286;48.098;11.590;2022-08-06T13:10:51;96219.91;;;17.62;100.00
60433;BME280;46286;48.098;11.590;2022-08-06T13:13:17;96210.72;;;17.68;100.00
60433;BME280;46286;48.098;11.590;2022-08-06T13:15:59;96208.56;;;17.42;100.00
60433;BME280;46286;48.098;11.590;2022-08-06T13:18:25;96216.06;;;17.40;100.00
60433;BME280;46286;48.098;11.590;2022-08-06T13:20:51;96208.34;;;17.25;100.00
60433;BME280;46286;48.098;11.590;2022-08-06T13:23:34;96203.84;;;17.39;100.00
60433;BME280;46286;48.098;11.590;2022-08-06T13:26:19;96221.38;;;17.40;100.00
60433;BME280;46286;48.098;11.590;2022-08-06T13:29:04;96218.22;;;17.66;100.00
60433;BME280;46286;48.098;11.590;2022-08-06T13:31:32;96207.97;;;17.73;100.00
60433;BME280;46286;48.098;11.590;2022-08-06T13:34:02;96202.84;;;17.63;100.00
60433;BME280;46286;48.098;11.590;2022-08-06T13:36:29;96211.47;;;17.82;100.00
60433;BME280;46286;48.098;11.590;2022-08-06T13:38:55;96211.88;;;17.90;100.00
60433;BME280;46286;48.098;11.590;2022-08-06T13:41:28;96214.88;;;17.74;100.00
60433;BME280;46286;48.098;11.590;2022-08-06T13:43:54;96210.91;;;17.72;100.00
60433;BME280;46286;48.098;11.590;2022-08-06T13:46:22;96210.63;;;17.73;100.00
60433;BME280;46286;48.098;11.590;2022-08-06T13:48:49;96219.00;;;17.80;100.00
60433;BME280;46286;48.098;11.590;2022-08-06T13:51:16;96219.19;;;17.70;100.00